sensor_id;sensor_type;location;lat;lon;timestamp;P1;durP1;ratioP1;P2;durP2;ratioP2
37955;SDS011;23776;51.592;7.180;2024-01-27T00:01:32;37.22;;;6.35;;
37955;SDS011;23776;51.592;7.180;2024-01-27T00:03:58;37.28;;;5.68;;
37955;SDS011;23776;51.592;7.180;2024-01-27T00:06:24;24.40;;;5.53;;
37955;SDS011;23776;51.592;7.180;2024-01-27T00:08:49;30.77;;;6.10;;
37955;SDS011;23776;51.592;7.180;2024-01-27T00:11:15;36.60;;;6.82;;
37955;SDS011;23776;51.592;7.180;2024-01-27T00:13:40;17.10;;;5.55;;
37955;SDS011;23776;51.592;7.180;2024-01-27T00:16:06;28.50;;;6.13;;
37955;SDS011;23776;51.592;7.180;2024-01-27T00:18:32;33.53;;;5.90;;
37955;SDS011;23776;51.592;7.180;2024-01-27T00:21:00;32.45;;;6.22;;
37955;SDS011;23776;51.592;7.180;2024-01-27T00:23:26;24.73;;;6.20;;
37955;SDS011;23776;51.592;7.180;2024-01-27T00:25:51;27.55;;;5.68;;
37955;SDS011;23776;51.592;7.180;2024-01-27T00:28:17;21.90;;;5.25;;
37955;SDS011;23776;51.592;7.180;2024-01-27T00:30:42;26.98;;;5.75;;
37955;SDS011;23776;51.592;7.180;2024-01-27T00:33:08;35.00;;;6.25;;
37955;SDS011;23776;51.592;7.180;2024-01-27T00:35:34;41.92;;;6.22;;
37955;SDS011;23776;51.592;7.180;2024-01-27T00:37:59;26.33;;;6.15;;
37955;SDS011;23776;51.592;7.180;2024-01-27T00:40:25;35.17;;;6.63;;
37955;SDS011;23776;51.592;7.180;2024-01-27T00:42:51;26.98;;;6.22;;
37955;SDS011;23776;51.592;7.180;2024-01-27T00:45:16;24.35;;;5.28;;
37955;SDS011;23776;51.592;7.180;2024-01-27T00:47:42;27.80;;;5.47;;
37955;SDS011;23776;51.592;7.180;2024-01-27T00:50:07;27.25;;;5.68;;
37955;SDS011;23776;51.592;7.180;2024-01-27T00:52:34;23.05;;;6.13;;
37955;SDS011;23776;51.592;7.180;2024-01-27T00:55:00;27.65;;;5.82;;
37955;SDS011;23776;51.592;7.180;2024-01-27T00:57:25;25.02;;;5.88;;
37955;SDS011;23776;51.592;7.180;2024-01-27T00:59:51;22.00;;;5.20;;
37955;SDS011;23776;51.592;7.180;2024-01-27T01:02:16;24.65;;;5.47;;
37955;SDS011;23776;51.592;7.180;2024-01-27T01:04:42;26.63;;;5.40;;
37955;SDS011;23776;51.592;7.180;2024-01-27T01:07:08;23.95;;;6.10;;
37955;SDS011;23776;51.592;7.180;2024-01-27T01:09:34;32.88;;;6.43;;
37955;SDS011;23776;51.592;7.180;2024-01-27T01:11:59;28.15;;;5.85;;
37955;SDS011;23776;51.592;7.180;2024-01-27T01:14:25;25.27;;;6.32;;
37955;SDS011;23776;51.592;7.180;2024-01-27T01:16:50;28.55;;;6.97;;
37955;SDS011;23776;51.592;7.180;2024-01-27T01:19:16;41.35;;;7.32;;
37955;SDS011;23776;51.592;7.180;2024-01-27T01:21:41;23.33;;;5.63;;
37955;SDS011;23776;51.592;7.180;2024-01-27T01:24:07;28.90;;;6.65;;
37955;SDS011;23776;51.592;7.180;2024-01-27T01:26:32;30.23;;;6.57;;
37955;SDS011;23776;51.592;7.180;2024-01-27T01:28:58;31.13;;;6.32;;
37955;SDS011;23776;51.592;7.180;2024-01-27T01:31:24;31.13;;;7.13;;
37955;SDS011;23776;51.592;7.180;2024-01-27T01:33:49;32.78;;;7.05;;
37955;SDS011;23776;51.592;7.180;2024-01-27T01:36:15;29.02;;;6.57;;
37955;SDS011;23776;51.592;7.180;2024-01-27T01:38:40;16.83;;;6.25;;
37955;SDS011;23776;51.592;7.180;2024-01-27T01:41:06;27.00;;;6.05;;
37955;SDS011;23776;51.592;7.180;2024-01-27T01:43:31;28.08;;;7.10;;
37955;SDS011;23776;51.592;7.180;2024-01-27T01:45:57;26.33;;;6.45;;
37955;SDS011;23776;51.592;7.180;2024-01-27T01:48:22;26.92;;;5.57;;
37955;SDS011;23776;51.592;7.180;2024-01-27T01:50:48;22.10;;;6.13;;
37955;SDS011;23776;51.592;7.180;2024-01-27T01:53:14;25.42;;;5.88;;
37955;SDS011;23776;51.592;7.180;2024-01-27T01:55:40;33.78;;;7.03;;
37955;SDS011;23776;51.592;7.180;2024-01-27T01:58:06;27.17;;;6.18;;
37955;SDS011;23776;51.592;7.180;2024-01-27T02:00:31;31.10;;;6.80;;
37955;SDS011;23776;51.592;7.180;2024-01-27T02:02:57;22.15;;;6.03;;
37955;SDS011;23776;51.592;7.180;2024-01-27T02:05:23;24.67;;;5.97;;
37955;SDS011;23776;51.592;7.180;2024-01-27T02:07:49;24.20;;;6.63;;
37955;SDS011;23776;51.592;7.180;2024-01-27T02:10:16;23.55;;;6.05;;
37955;SDS011;23776;51.592;7.180;2024-01-27T02:12:42;30.10;;;6.35;;
37955;SDS011;23776;51.592;7.180;2024-01-27T02:15:09;25.55;;;6.93;;
37955;SDS011;23776;51.592;7.180;2024-01-27T02:17:36;24.45;;;6.70;;
37955;SDS011;23776;51.592;7.180;2024-01-27T02:20:02;21.35;;;6.40;;
37955;SDS011;23776;51.592;7.180;2024-01-27T02:22:28;19.63;;;6.45;;
37955;SDS011;23776;51.592;7.180;2024-01-27T02:24:54;33.15;;;7.68;;
37955;SDS011;23776;51.592;7.180;2024-01-27T02:27:20;33.05;;;6.95;;
37955;SDS011;23776;51.592;7.180;2024-01-27T02:29:45;29.05;;;6.95;;
37955;SDS011;23776;51.592;7.180;2024-01-27T02:32:11;24.65;;;6.55;;
37955;SDS011;23776;51.592;7.180;2024-01-27T02:34:36;33.08;;;8.00;;
37955;SDS011;23776;51.592;7.180;2024-01-27T02:37:02;25.08;;;6.70;;
37955;SDS011;23776;51.592;7.180;2024-01-27T02:39:28;23.58;;;6.50;;
37955;SDS011;23776;51.592;7.180;2024-01-27T02:41:53;30.95;;;7.18;;
37955;SDS011;23776;51.592;7.180;2024-01-27T02:44:19;25.88;;;7.43;;
37955;SDS011;23776;51.592;7.180;2024-01-27T02:46:44;28.33;;;8.10;;
37955;SDS011;23776;51.592;7.180;2024-01-27T02:49:10;29.10;;;6.88;;
37955;SDS011;23776;51.592;7.180;2024-01-27T02:51:35;24.25;;;7.10;;
37955;SDS011;23776;51.592;7.180;2024-01-27T02:54:01;25.98;;;6.95;;
37955;SDS011;23776;51.592;7.180;2024-01-27T02:56:26;19.95;;;6.95;;
37955;SDS011;23776;51.592;7.180;2024-01-27T02:58:52;23.85;;;6.72;;
37955;SDS011;23776;51.592;7.180;2024-01-27T03:01:18;35.05;;;8.25;;
37955;SDS011;23776;51.592;7.180;2024-01-27T03:03:43;24.80;;;6.65;;
37955;SDS011;23776;51.592;7.180;2024-01-27T03:06:09;21.95;;;7.00;;
37955;SDS011;23776;51.592;7.180;2024-01-27T03:08:34;30.00;;;6.40;;
37955;SDS011;23776;51.592;7.180;2024-01-27T03:11:00;33.17;;;6.72;;
37955;SDS011;23776;51.592;7.180;2024-01-27T03:13:26;28.50;;;7.25;;
37955;SDS011;23776;51.592;7.180;2024-01-27T03:15:51;29.13;;;7.70;;
37955;SDS011;23776;51.592;7.180;2024-01-27T03:18:17;22.40;;;6.82;;
37955;SDS011;23776;51.592;7.180;2024-01-27T03:20:43;25.50;;;6.65;;
37955;SDS011;23776;51.592;7.180;2024-01-27T03:23:08;31.15;;;6.63;;
37955;SDS011;23776;51.592;7.180;2024-01-27T03:25:34;16.92;;;6.25;;
37955;SDS011;23776;51.592;7.180;2024-01-27T03:28:00;20.90;;;5.65;;
37955;SDS011;23776;51.592;7.180;2024-01-27T03:30:25;27.98;;;7.55;;
37955;SDS011;23776;51.592;7.180;2024-01-27T03:32:51;30.58;;;6.70;;
37955;SDS011;23776;51.592;7.180;2024-01-27T03:35:17;24.10;;;6.35;;
37955;SDS011;23776;51.592;7.180;2024-01-27T03:37:42;29.38;;;6.22;;
37955;SDS011;23776;51.592;7.180;2024-01-27T03:40:09;31.75;;;7.82;;
37955;SDS011;23776;51.592;7.180;2024-01-27T03:42:35;17.85;;;6.20;;
37955;SDS011;23776;51.592;7.180;2024-01-27T03:45:01;25.10;;;7.53;;
37955;SDS011;23776;51.592;7.180;2024-01-27T03:47:26;14.18;;;6.32;;
37955;SDS011;23776;51.592;7.180;2024-01-27T03:49:52;29.33;;;8.02;;
37955;SDS011;23776;51.592;7.180;2024-01-27T03:52:17;31.38;;;7.35;;
37955;SDS011;23776;51.592;7.180;2024-01-27T03:54:43;30.73;;;7.68;;
37955;SDS011;23776;51.592;7.180;2024-01-27T03:57:09;20.30;;;6.45;;
37955;SDS011;23776;51.592;7.180;2024-01-27T03:59:34;24.88;;;7.07;;
37955;SDS011;23776;51.592;7.180;2024-01-27T04:02:00;16.98;;;6.30;;
37955;SDS011;23776;51.592;7.180;2024-01-27T04:04:25;29.15;;;7.82;;
37955;SDS011;23776;51.592;7.180;2024-01-27T04:06:51;30.50;;;7.90;;
37955;SDS011;23776;51.592;7.180;2024-01-27T04:09:16;31.65;;;7.63;;
37955;SDS011;23776;51.592;7.180;2024-01-27T04:11:42;32.92;;;6.68;;
37955;SDS011;23776;51.592;7.180;2024-01-27T04:14:07;26.40;;;7.88;;
37955;SDS011;23776;51.592;7.180;2024-01-27T04:16:33;36.03;;;8.63;;
37955;SDS011;23776;51.592;7.180;2024-01-27T04:18:59;27.13;;;8.18;;
37955;SDS011;23776;51.592;7.180;2024-01-27T04:21:24;25.58;;;7.10;;
37955;SDS011;23776;51.592;7.180;2024-01-27T04:23:50;30.38;;;8.07;;
37955;SDS011;23776;51.592;7.180;2024-01-27T04:26:15;40.30;;;7.65;;
37955;SDS011;23776;51.592;7.180;2024-01-27T04:28:42;38.08;;;8.48;;
37955;SDS011;23776;51.592;7.180;2024-01-27T04:31:08;21.08;;;6.60;;
37955;SDS011;23776;51.592;7.180;2024-01-27T04:33:33;32.72;;;7.75;;
37955;SDS011;23776;51.592;7.180;2024-01-27T04:35:59;23.27;;;7.50;;
37955;SDS011;23776;51.592;7.180;2024-01-27T04:38:24;23.10;;;7.80;;
37955;SDS011;23776;51.592;7.180;2024-01-27T04:40:50;32.92;;;7.68;;
37955;SDS011;23776;51.592;7.180;2024-01-27T04:43:16;34.45;;;8.05;;
37955;SDS011;23776;51.592;7.180;2024-01-27T04:45:43;23.63;;;7.68;;
37955;SDS011;23776;51.592;7.180;2024-01-27T04:48:08;31.40;;;8.35;;
37955;SDS011;23776;51.592;7.180;2024-01-27T04:50:34;20.23;;;7.20;;
37955;SDS011;23776;51.592;7.180;2024-01-27T04:53:00;26.00;;;7.95;;
37955;SDS011;23776;51.592;7.180;2024-01-27T04:55:26;22.45;;;7.97;;
37955;SDS011;23776;51.592;7.180;2024-01-27T04:57:52;32.38;;;8.60;;
37955;SDS011;23776;51.592;7.180;2024-01-27T05:00:18;33.95;;;8.30;;
37955;SDS011;23776;51.592;7.180;2024-01-27T05:02:44;30.75;;;7.90;;
37955;SDS011;23776;51.592;7.180;2024-01-27T05:05:10;34.00;;;8.80;;
37955;SDS011;23776;51.592;7.180;2024-01-27T05:07:36;31.88;;;9.10;;
37955;SDS011;23776;51.592;7.180;2024-01-27T05:10:02;28.42;;;9.07;;
37955;SDS011;23776;51.592;7.180;2024-01-27T05:12:28;32.60;;;8.65;;
37955;SDS011;23776;51.592;7.180;2024-01-27T05:14:54;23.65;;;8.73;;
37955;SDS011;23776;51.592;7.180;2024-01-27T05:17:20;29.83;;;8.43;;
37955;SDS011;23776;51.592;7.180;2024-01-27T05:19:45;30.58;;;8.82;;
37955;SDS011;23776;51.592;7.180;2024-01-27T05:22:11;23.83;;;7.65;;
37955;SDS011;23776;51.592;7.180;2024-01-27T05:24:37;24.67;;;8.32;;
37955;SDS011;23776;51.592;7.180;2024-01-27T05:27:02;27.27;;;8.55;;
37955;SDS011;23776;51.592;7.180;2024-01-27T05:29:28;33.15;;;8.02;;
37955;SDS011;23776;51.592;7.180;2024-01-27T05:31:54;33.60;;;8.43;;
37955;SDS011;23776;51.592;7.180;2024-01-27T05:34:19;32.13;;;9.73;;
37955;SDS011;23776;51.592;7.180;2024-01-27T05:36:46;32.95;;;9.20;;
37955;SDS011;23776;51.592;7.180;2024-01-27T05:39:12;23.10;;;8.57;;
37955;SDS011;23776;51.592;7.180;2024-01-27T05:41:38;27.65;;;8.88;;
37955;SDS011;23776;51.592;7.180;2024-01-27T05:44:04;27.92;;;9.45;;
37955;SDS011;23776;51.592;7.180;2024-01-27T05:46:29;28.63;;;9.02;;
37955;SDS011;23776;51.592;7.180;2024-01-27T05:48:55;45.05;;;10.38;;
37955;SDS011;23776;51.592;7.180;2024-01-27T05:51:26;41.53;;;9.65;;
37955;SDS011;23776;51.592;7.180;2024-01-27T05:53:52;35.10;;;10.43;;
37955;SDS011;23776;51.592;7.180;2024-01-27T05:56:17;30.85;;;9.25;;
37955;SDS011;23776;51.592;7.180;2024-01-27T05:58:46;35.72;;;10.00;;
37955;SDS011;23776;51.592;7.180;2024-01-27T06:01:12;32.53;;;9.60;;
37955;SDS011;23776;51.592;7.180;2024-01-27T06:03:37;33.97;;;9.70;;
37955;SDS011;23776;51.592;7.180;2024-01-27T06:06:05;23.08;;;10.05;;
37955;SDS011;23776;51.592;7.180;2024-01-27T06:08:31;35.03;;;9.80;;
37955;SDS011;23776;51.592;7.180;2024-01-27T06:10:56;32.38;;;9.95;;
37955;SDS011;23776;51.592;7.180;2024-01-27T06:13:22;37.22;;;10.00;;
37955;SDS011;23776;51.592;7.180;2024-01-27T06:15:48;30.25;;;10.68;;
37955;SDS011;23776;51.592;7.180;2024-01-27T06:18:13;29.55;;;9.77;;
37955;SDS011;23776;51.592;7.180;2024-01-27T06:20:39;31.60;;;10.80;;
37955;SDS011;23776;51.592;7.180;2024-01-27T06:23:05;32.10;;;9.77;;
37955;SDS011;23776;51.592;7.180;2024-01-27T06:25:31;27.00;;;9.20;;
37955;SDS011;23776;51.592;7.180;2024-01-27T06:27:57;34.17;;;9.95;;
37955;SDS011;23776;51.592;7.180;2024-01-27T06:30:22;30.35;;;9.40;;
37955;SDS011;23776;51.592;7.180;2024-01-27T06:32:48;33.45;;;10.43;;
37955;SDS011;23776;51.592;7.180;2024-01-27T06:35:14;35.88;;;9.57;;
37955;SDS011;23776;51.592;7.180;2024-01-27T06:37:39;45.85;;;11.35;;
37955;SDS011;23776;51.592;7.180;2024-01-27T06:40:05;45.85;;;10.77;;
37955;SDS011;23776;51.592;7.180;2024-01-27T06:42:32;27.83;;;10.38;;
37955;SDS011;23776;51.592;7.180;2024-01-27T06:44:58;43.53;;;10.77;;
37955;SDS011;23776;51.592;7.180;2024-01-27T06:47:24;37.35;;;9.75;;
37955;SDS011;23776;51.592;7.180;2024-01-27T06:49:49;32.58;;;10.27;;
37955;SDS011;23776;51.592;7.180;2024-01-27T06:52:15;28.33;;;9.43;;
37955;SDS011;23776;51.592;7.180;2024-01-27T06:54:41;25.50;;;10.07;;
37955;SDS011;23776;51.592;7.180;2024-01-27T06:57:17;20.83;;;8.77;;
37955;SDS011;23776;51.592;7.180;2024-01-27T06:59:44;34.53;;;9.57;;
37955;SDS011;23776;51.592;7.180;2024-01-27T07:02:10;34.53;;;9.43;;
37955;SDS011;23776;51.592;7.180;2024-01-27T07:04:39;32.95;;;9.65;;
37955;SDS011;23776;51.592;7.180;2024-01-27T07:07:04;33.97;;;10.07;;
37955;SDS011;23776;51.592;7.180;2024-01-27T07:09:30;37.63;;;9.30;;
37955;SDS011;23776;51.592;7.180;2024-01-27T07:11:55;31.23;;;8.70;;
37955;SDS011;23776;51.592;7.180;2024-01-27T07:14:21;23.08;;;8.73;;
37955;SDS011;23776;51.592;7.180;2024-01-27T07:16:46;31.23;;;8.32;;
37955;SDS011;23776;51.592;7.180;2024-01-27T07:19:12;25.73;;;9.07;;
37955;SDS011;23776;51.592;7.180;2024-01-27T07:21:38;24.58;;;9.23;;
37955;SDS011;23776;51.592;7.180;2024-01-27T07:24:04;25.13;;;8.05;;
37955;SDS011;23776;51.592;7.180;2024-01-27T07:26:29;33.30;;;9.65;;
37955;SDS011;23776;51.592;7.180;2024-01-27T07:28:56;34.60;;;10.98;;
37955;SDS011;23776;51.592;7.180;2024-01-27T07:31:22;28.95;;;8.93;;
37955;SDS011;23776;51.592;7.180;2024-01-27T07:33:49;27.77;;;9.38;;
37955;SDS011;23776;51.592;7.180;2024-01-27T07:36:15;25.90;;;8.70;;
37955;SDS011;23776;51.592;7.180;2024-01-27T07:38:41;30.88;;;9.35;;
37955;SDS011;23776;51.592;7.180;2024-01-27T07:41:06;29.23;;;9.07;;
37955;SDS011;23776;51.592;7.180;2024-01-27T07:43:32;29.50;;;8.73;;
37955;SDS011;23776;51.592;7.180;2024-01-27T07:45:57;42.75;;;10.30;;
37955;SDS011;23776;51.592;7.180;2024-01-27T07:48:23;24.38;;;9.32;;
37955;SDS011;23776;51.592;7.180;2024-01-27T07:50:48;26.35;;;9.10;;
37955;SDS011;23776;51.592;7.180;2024-01-27T07:53:15;28.40;;;10.23;;
37955;SDS011;23776;51.592;7.180;2024-01-27T07:55:41;37.78;;;9.63;;
37955;SDS011;23776;51.592;7.180;2024-01-27T07:58:06;34.47;;;8.75;;
37955;SDS011;23776;51.592;7.180;2024-01-27T08:00:32;32.13;;;9.05;;
37955;SDS011;23776;51.592;7.180;2024-01-27T08:02:58;25.45;;;8.95;;
37955;SDS011;23776;51.592;7.180;2024-01-27T08:05:23;25.52;;;8.55;;
37955;SDS011;23776;51.592;7.180;2024-01-27T08:07:49;35.95;;;9.25;;
37955;SDS011;23776;51.592;7.180;2024-01-27T08:10:14;33.63;;;9.38;;
37955;SDS011;23776;51.592;7.180;2024-01-27T08:12:40;24.27;;;9.48;;
37955;SDS011;23776;51.592;7.180;2024-01-27T08:15:06;33.20;;;9.65;;
37955;SDS011;23776;51.592;7.180;2024-01-27T08:17:32;26.30;;;8.23;;
37955;SDS011;23776;51.592;7.180;2024-01-27T08:19:58;34.25;;;9.00;;
37955;SDS011;23776;51.592;7.180;2024-01-27T08:22:24;26.60;;;8.32;;
37955;SDS011;23776;51.592;7.180;2024-01-27T08:24:50;36.88;;;8.70;;
37955;SDS011;23776;51.592;7.180;2024-01-27T08:27:15;40.00;;;8.52;;
37955;SDS011;23776;51.592;7.180;2024-01-27T08:29:41;40.53;;;9.18;;
37955;SDS011;23776;51.592;7.180;2024-01-27T08:32:06;45.10;;;8.48;;
37955;SDS011;23776;51.592;7.180;2024-01-27T08:34:32;36.53;;;10.18;;
37955;SDS011;23776;51.592;7.180;2024-01-27T08:36:59;39.17;;;9.02;;
37955;SDS011;23776;51.592;7.180;2024-01-27T08:39:26;39.42;;;8.73;;
37955;SDS011;23776;51.592;7.180;2024-01-27T08:41:52;40.33;;;10.02;;
37955;SDS011;23776;51.592;7.180;2024-01-27T08:44:18;26.90;;;8.55;;
37955;SDS011;23776;51.592;7.180;2024-01-27T08:46:43;26.00;;;8.73;;
37955;SDS011;23776;51.592;7.180;2024-01-27T08:49:09;34.83;;;9.00;;
37955;SDS011;23776;51.592;7.180;2024-01-27T08:51:34;42.42;;;8.88;;
37955;SDS011;23776;51.592;7.180;2024-01-27T08:54:00;35.22;;;8.35;;
37955;SDS011;23776;51.592;7.180;2024-01-27T08:56:25;31.52;;;9.27;;
37955;SDS011;23776;51.592;7.180;2024-01-27T08:58:51;34.03;;;7.78;;
37955;SDS011;23776;51.592;7.180;2024-01-27T09:01:17;43.35;;;9.80;;
37955;SDS011;23776;51.592;7.180;2024-01-27T09:03:44;33.10;;;9.00;;
37955;SDS011;23776;51.592;7.180;2024-01-27T09:06:09;26.42;;;8.52;;
37955;SDS011;23776;51.592;7.180;2024-01-27T09:08:35;23.17;;;8.50;;
37955;SDS011;23776;51.592;7.180;2024-01-27T09:11:01;33.75;;;8.73;;
37955;SDS011;23776;51.592;7.180;2024-01-27T09:13:27;26.45;;;7.90;;
37955;SDS011;23776;51.592;7.180;2024-01-27T09:15:53;29.10;;;7.72;;
37955;SDS011;23776;51.592;7.180;2024-01-27T09:18:18;32.80;;;8.18;;
37955;SDS011;23776;51.592;7.180;2024-01-27T09:20:45;31.05;;;7.32;;
37955;SDS011;23776;51.592;7.180;2024-01-27T09:23:10;38.47;;;8.38;;
37955;SDS011;23776;51.592;7.180;2024-01-27T09:25:36;25.10;;;7.13;;
37955;SDS011;23776;51.592;7.180;2024-01-27T09:28:02;24.50;;;8.02;;
37955;SDS011;23776;51.592;7.180;2024-01-27T09:30:28;33.60;;;7.40;;
37955;SDS011;23776;51.592;7.180;2024-01-27T09:32:53;24.40;;;7.20;;
37955;SDS011;23776;51.592;7.180;2024-01-27T09:35:19;30.67;;;7.10;;
37955;SDS011;23776;51.592;7.180;2024-01-27T09:37:45;22.77;;;6.35;;
37955;SDS011;23776;51.592;7.180;2024-01-27T09:40:11;24.40;;;7.13;;
37955;SDS011;23776;51.592;7.180;2024-01-27T09:42:37;22.15;;;6.15;;
37955;SDS011;23776;51.592;7.180;2024-01-27T09:45:04;24.25;;;7.30;;
37955;SDS011;23776;51.592;7.180;2024-01-27T09:47:30;28.00;;;6.53;;
37955;SDS011;23776;51.592;7.180;2024-01-27T09:49:56;22.42;;;6.00;;
37955;SDS011;23776;51.592;7.180;2024-01-27T09:52:22;26.23;;;5.75;;
37955;SDS011;23776;51.592;7.180;2024-01-27T09:54:48;31.20;;;6.15;;
37955;SDS011;23776;51.592;7.180;2024-01-27T09:57:14;19.98;;;5.72;;
37955;SDS011;23776;51.592;7.180;2024-01-27T09:59:43;26.23;;;6.88;;
37955;SDS011;23776;51.592;7.180;2024-01-27T10:02:11;22.30;;;5.65;;
37955;SDS011;23776;51.592;7.180;2024-01-27T10:04:39;29.83;;;5.00;;
37955;SDS011;23776;51.592;7.180;2024-01-27T10:07:07;28.48;;;5.55;;
37955;SDS011;23776;51.592;7.180;2024-01-27T10:09:32;22.55;;;5.50;;
37955;SDS011;23776;51.592;7.180;2024-01-27T10:11:58;27.58;;;6.15;;
37955;SDS011;23776;51.592;7.180;2024-01-27T10:14:36;27.58;;;5.43;;
37955;SDS011;23776;51.592;7.180;2024-01-27T10:17:05;20.95;;;5.57;;
37955;SDS011;23776;51.592;7.180;2024-01-27T10:19:34;25.08;;;5.50;;
37955;SDS011;23776;51.592;7.180;2024-01-27T10:22:00;30.90;;;5.93;;
37955;SDS011;23776;51.592;7.180;2024-01-27T10:24:31;13.38;;;4.88;;
37955;SDS011;23776;51.592;7.180;2024-01-27T10:27:03;26.95;;;5.57;;
37955;SDS011;23776;51.592;7.180;2024-01-27T10:29:29;23.45;;;5.70;;
37955;SDS011;23776;51.592;7.180;2024-01-27T10:31:55;23.88;;;6.00;;
37955;SDS011;23776;51.592;7.180;2024-01-27T10:34:31;22.98;;;5.93;;
37955;SDS011;23776;51.592;7.180;2024-01-27T10:36:57;21.60;;;4.90;;
37955;SDS011;23776;51.592;7.180;2024-01-27T10:39:23;24.65;;;5.68;;
37955;SDS011;23776;51.592;7.180;2024-01-27T10:41:49;28.83;;;5.18;;
37955;SDS011;23776;51.592;7.180;2024-01-27T10:44:16;35.08;;;6.18;;
37955;SDS011;23776;51.592;7.180;2024-01-27T10:46:43;26.20;;;5.07;;
37955;SDS011;23776;51.592;7.180;2024-01-27T10:49:15;21.85;;;5.00;;
37955;SDS011;23776;51.592;7.180;2024-01-27T10:52:03;19.75;;;5.60;;
37955;SDS011;23776;51.592;7.180;2024-01-27T10:54:31;25.17;;;4.82;;
37955;SDS011;23776;51.592;7.180;2024-01-27T10:57:00;17.08;;;4.72;;
37955;SDS011;23776;51.592;7.180;2024-01-27T10:59:27;18.65;;;4.45;;
37955;SDS011;23776;51.592;7.180;2024-01-27T11:01:55;24.25;;;4.85;;
37955;SDS011;23776;51.592;7.180;2024-01-27T11:04:21;23.98;;;4.60;;
37955;SDS011;23776;51.592;7.180;2024-01-27T11:06:48;24.10;;;4.88;;
37955;SDS011;23776;51.592;7.180;2024-01-27T11:09:14;20.45;;;4.32;;
37955;SDS011;23776;51.592;7.180;2024-01-27T11:11:43;21.20;;;4.53;;
37955;SDS011;23776;51.592;7.180;2024-01-27T11:14:10;25.52;;;5.55;;
37955;SDS011;23776;51.592;7.180;2024-01-27T11:16:36;25.98;;;4.95;;
37955;SDS011;23776;51.592;7.180;2024-01-27T11:19:09;18.70;;;4.90;;
37955;SDS011;23776;51.592;7.180;2024-01-27T11:21:38;18.77;;;4.47;;
37955;SDS011;23776;51.592;7.180;2024-01-27T11:24:16;25.67;;;5.07;;
37955;SDS011;23776;51.592;7.180;2024-01-27T11:26:43;30.63;;;5.00;;
37955;SDS011;23776;51.592;7.180;2024-01-27T11:29:09;20.40;;;4.18;;
37955;SDS011;23776;51.592;7.180;2024-01-27T11:31:43;10.93;;;3.92;;
37955;SDS011;23776;51.592;7.180;2024-01-27T11:34:10;20.48;;;4.65;;
37955;SDS011;23776;51.592;7.180;2024-01-27T11:36:37;25.77;;;4.93;;
37955;SDS011;23776;51.592;7.180;2024-01-27T11:39:03;30.27;;;5.80;;
37955;SDS011;23776;51.592;7.180;2024-01-27T11:41:29;20.08;;;4.63;;
37955;SDS011;23776;51.592;7.180;2024-01-27T11:43:56;29.00;;;5.03;;
37955;SDS011;23776;51.592;7.180;2024-01-27T11:46:24;18.50;;;4.72;;
37955;SDS011;23776;51.592;7.180;2024-01-27T11:48:50;17.13;;;4.15;;
37955;SDS011;23776;51.592;7.180;2024-01-27T11:51:16;21.02;;;4.07;;
37955;SDS011;23776;51.592;7.180;2024-01-27T11:53:43;25.27;;;4.93;;
37955;SDS011;23776;51.592;7.180;2024-01-27T11:56:10;23.23;;;4.95;;
37955;SDS011;23776;51.592;7.180;2024-01-27T11:58:36;18.10;;;4.57;;
37955;SDS011;23776;51.592;7.180;2024-01-27T12:01:01;19.30;;;5.30;;
37955;SDS011;23776;51.592;7.180;2024-01-27T12:03:27;20.02;;;4.80;;
37955;SDS011;23776;51.592;7.180;2024-01-27T12:05:54;18.63;;;4.30;;
37955;SDS011;23776;51.592;7.180;2024-01-27T12:08:20;28.02;;;4.80;;
37955;SDS011;23776;51.592;7.180;2024-01-27T12:10:46;17.75;;;5.00;;
37955;SDS011;23776;51.592;7.180;2024-01-27T12:13:12;20.00;;;4.82;;
37955;SDS011;23776;51.592;7.180;2024-01-27T12:15:39;17.38;;;3.97;;
37955;SDS011;23776;51.592;7.180;2024-01-27T12:18:04;22.88;;;5.10;;
37955;SDS011;23776;51.592;7.180;2024-01-27T12:20:30;28.17;;;5.45;;
37955;SDS011;23776;51.592;7.180;2024-01-27T12:23:02;23.02;;;4.70;;
37955;SDS011;23776;51.592;7.180;2024-01-27T12:25:29;25.60;;;5.72;;
37955;SDS011;23776;51.592;7.180;2024-01-27T12:27:54;22.10;;;4.70;;
37955;SDS011;23776;51.592;7.180;2024-01-27T12:30:21;23.83;;;5.28;;
37955;SDS011;23776;51.592;7.180;2024-01-27T12:32:46;20.58;;;4.95;;
37955;SDS011;23776;51.592;7.180;2024-01-27T12:35:13;20.48;;;4.70;;
37955;SDS011;23776;51.592;7.180;2024-01-27T12:37:38;24.27;;;5.32;;
37955;SDS011;23776;51.592;7.180;2024-01-27T12:40:22;19.02;;;4.57;;
37955;SDS011;23776;51.592;7.180;2024-01-27T12:42:48;19.52;;;4.63;;
37955;SDS011;23776;51.592;7.180;2024-01-27T12:45:14;25.17;;;5.50;;
37955;SDS011;23776;51.592;7.180;2024-01-27T12:47:40;27.42;;;5.05;;
37955;SDS011;23776;51.592;7.180;2024-01-27T12:50:06;18.95;;;5.05;;
37955;SDS011;23776;51.592;7.180;2024-01-27T12:52:33;23.73;;;5.68;;
37955;SDS011;23776;51.592;7.180;2024-01-27T12:54:59;28.02;;;6.35;;
37955;SDS011;23776;51.592;7.180;2024-01-27T12:57:24;24.70;;;5.25;;
37955;SDS011;23776;51.592;7.180;2024-01-27T12:59:50;24.40;;;6.30;;
37955;SDS011;23776;51.592;7.180;2024-01-27T13:02:16;22.17;;;5.35;;
37955;SDS011;23776;51.592;7.180;2024-01-27T13:04:42;16.33;;;5.55;;
37955;SDS011;23776;51.592;7.180;2024-01-27T13:07:07;17.75;;;4.80;;
37955;SDS011;23776;51.592;7.180;2024-01-27T13:09:33;27.70;;;6.28;;
37955;SDS011;23776;51.592;7.180;2024-01-27T13:11:59;27.55;;;5.18;;
37955;SDS011;23776;51.592;7.180;2024-01-27T13:14:25;24.77;;;4.57;;
37955;SDS011;23776;51.592;7.180;2024-01-27T13:16:51;27.08;;;9.77;;
37955;SDS011;23776;51.592;7.180;2024-01-27T13:19:19;17.77;;;4.72;;
37955;SDS011;23776;51.592;7.180;2024-01-27T13:21:44;21.63;;;5.30;;
37955;SDS011;23776;51.592;7.180;2024-01-27T13:24:10;19.95;;;6.10;;
37955;SDS011;23776;51.592;7.180;2024-01-27T13:26:36;22.40;;;5.25;;
37955;SDS011;23776;51.592;7.180;2024-01-27T13:29:04;28.40;;;5.47;;
37955;SDS011;23776;51.592;7.180;2024-01-27T13:31:30;16.77;;;4.03;;
37955;SDS011;23776;51.592;7.180;2024-01-27T13:33:56;25.85;;;5.05;;
37955;SDS011;23776;51.592;7.180;2024-01-27T13:36:22;22.35;;;5.75;;
37955;SDS011;23776;51.592;7.180;2024-01-27T13:38:48;22.42;;;5.30;;
37955;SDS011;23776;51.592;7.180;2024-01-27T13:41:20;14.57;;;4.13;;
37955;SDS011;23776;51.592;7.180;2024-01-27T13:43:45;18.27;;;4.43;;
37955;SDS011;23776;51.592;7.180;2024-01-27T13:46:11;17.38;;;5.78;;
37955;SDS011;23776;51.592;7.180;2024-01-27T13:48:37;20.67;;;4.78;;
37955;SDS011;23776;51.592;7.180;2024-01-27T13:51:02;22.40;;;4.63;;
37955;SDS011;23776;51.592;7.180;2024-01-27T13:53:28;32.13;;;5.45;;
37955;SDS011;23776;51.592;7.180;2024-01-27T13:55:54;19.70;;;4.63;;
37955;SDS011;23776;51.592;7.180;2024-01-27T13:58:20;19.10;;;4.68;;
37955;SDS011;23776;51.592;7.180;2024-01-27T14:00:46;15.07;;;3.80;;
37955;SDS011;23776;51.592;7.180;2024-01-27T14:03:12;22.17;;;4.82;;
37955;SDS011;23776;51.592;7.180;2024-01-27T14:05:38;21.10;;;5.30;;
37955;SDS011;23776;51.592;7.180;2024-01-27T14:08:04;16.15;;;4.22;;
37955;SDS011;23776;51.592;7.180;2024-01-27T14:10:32;19.23;;;5.00;;
37955;SDS011;23776;51.592;7.180;2024-01-27T14:12:57;15.98;;;4.60;;
37955;SDS011;23776;51.592;7.180;2024-01-27T14:15:23;18.80;;;5.00;;
37955;SDS011;23776;51.592;7.180;2024-01-27T14:17:49;19.50;;;4.03;;
37955;SDS011;23776;51.592;7.180;2024-01-27T14:20:15;21.48;;;5.47;;
37955;SDS011;23776;51.592;7.180;2024-01-27T14:22:40;20.27;;;4.80;;
37955;SDS011;23776;51.592;7.180;2024-01-27T14:25:06;26.10;;;5.55;;
37955;SDS011;23776;51.592;7.180;2024-01-27T14:27:33;19.38;;;4.25;;